Time;durP1;ratioP1;P1;durP2;ratioP2;P2;SDS_P1;SDS_P2;PMS_P1;PMS_P2;Temp;Humidity;BMP_temperature;BMP_pressure;BME280_temperature;BME280_humidity;BME280_pressure;Samples;Min_cycle;Max_cycle;Signal;HPM_P1;HPM_P2
2022/03/28 00:01:58;;;;;;;16.10;14.50;;;8.40;90.20;;;7.10;82.38;98912.84;4998274;28;20454;-71
2022/03/28 00:04:25;;;;;;;15.37;13.73;;;8.30;90.10;;;7.18;82.33;98912.00;4998202;28;22225;-71
2022/03/28 00:06:52;;;;;;;16.37;14.67;;;8.30;90.40;;;7.22;81.70;98910.66;4959806;28;1119837;-71
2022/03/28 00:09:19;;;;;;;14.90;13.40;;;8.40;90.10;;;7.21;81.98;98900.94;4995981;28;20204;-71
2022/03/28 00:11:46;;;;;;;16.00;14.10;;;8.40;89.90;;;7.20;81.71;98900.06;4995225;28;20538;-70
2022/03/28 00:14:13;;;;;;;16.50;14.13;;;8.40;89.90;;;7.13;81.64;98899.09;4995368;28;20474;-70
2022/03/28 00:16:41;;;;;;;16.53;14.60;;;8.40;89.20;;;7.12;81.93;98891.19;4999396;28;20558;-70
2022/03/28 00:19:08;;;;;;;13.87;12.50;;;8.40;89.80;;;6.97;82.26;98886.53;4999432;28;20597;-70
2022/03/28 00:21:36;;;;;;;15.30;13.70;;;8.30;90.10;;;7.07;82.41;98889.88;5003101;28;20519;-71
2022/03/28 00:24:03;;;;;;;16.70;14.47;;;8.30;90.40;;;6.69;82.57;98853.84;4993144;28;20474;-71
2022/03/28 00:26:30;;;;;;;17.73;14.53;;;8.20;90.00;;;6.97;82.34;98894.59;4998922;28;21004;-71
2022/03/28 00:28:57;;;;;;;15.70;14.10;;;8.20;90.30;;;6.89;82.65;98878.47;4999565;28;20467;-71
2022/03/28 00:31:24;;;;;;;16.07;14.37;;;8.20;90.40;;;6.51;82.83;98834.22;5023478;28;20467;-71
2022/03/28 00:33:53;;;;;;;20.53;14.53;;;8.20;90.50;;;6.84;83.37;98894.28;5001823;28;21073;-71
2022/03/28 00:36:20;;;;;;;15.73;14.13;;;8.10;90.60;;;6.66;83.41;98882.69;5001750;28;20699;-71
2022/03/28 00:38:48;;;;;;;16.50;14.67;;;8.00;91.10;;;6.60;84.22;98882.56;4992165;28;20555;-72
2022/03/28 00:41:16;;;;;;;16.53;14.83;;;7.90;91.30;;;6.69;84.17;98891.44;5001829;28;20716;-70
2022/03/28 00:43:55;;;;;;;17.03;15.10;;;7.90;91.50;;;6.79;83.53;98879.50;4994576;28;20543;-71
2022/03/28 00:46:22;;;;;;;15.23;13.70;;;7.90;91.50;;;6.76;83.37;98885.22;4997498;28;20482;-72
2022/03/28 00:48:49;;;;;;;16.80;14.30;;;7.90;91.10;;;6.72;83.65;98880.34;5002282;28;20455;-70
2022/03/28 00:51:19;;;;;;;15.77;14.30;;;7.90;91.20;;;6.61;83.85;98868.13;4998810;28;20559;-71
2022/03/28 00:53:47;;;;;;;16.70;15.10;;;7.90;91.00;;;6.48;84.74;98869.47;4996548;28;20549;-72
2022/03/28 00:56:14;;;;;;;18.57;15.40;;;7.70;91.40;;;6.33;85.29;98865.78;4996254;28;20799;-71
2022/03/28 00:58:42;;;;;;;17.33;15.27;;;7.60;91.90;;;6.28;85.81;98857.34;4996818;28;20460;-73
2022/03/28 01:01:10;;;;;;;17.43;14.37;;;7.50;92.60;;;6.26;85.89;98867.44;5002094;28;20463;-71
2022/03/28 01:03:37;;;;;;;16.57;14.87;;;7.50;92.80;;;6.22;85.68;98866.94;5000628;28;20467;-71
2022/03/28 01:06:05;;;;;;;16.50;14.80;;;7.40;92.90;;;6.47;85.16;98870.47;4998695;28;20499;-70
2022/03/28 01:08:34;;;;;;;16.70;15.00;;;7.60;92.80;;;6.32;85.66;98859.53;4998739;28;20495;-71
2022/03/28 01:11:06;;;;;;;14.57;13.27;;;7.50;92.80;;;6.36;85.00;98860.88;5003107;28;20462;-70
2022/03/28 01:13:35;;;;;;;15.57;13.97;;;7.50;92.50;;;6.40;84.72;98856.03;5002781;28;20452;-72
2022/03/28 01:16:02;;;;;;;16.10;14.37;;;7.60;92.30;;;6.37;85.00;98851.84;4995952;28;20879;-73
2022/03/28 01:18:28;;;;;;;16.97;15.37;;;7.60;92.10;;;6.26;84.95;98856.69;4996403;28;20463;-70
2022/03/28 01:20:57;;;;;;;21.60;15.50;;;7.50;91.90;;;6.23;85.02;98864.06;4996184;28;20480;-71
2022/03/28 01:23:25;;;;;;;16.40;14.73;;;7.50;92.40;;;6.21;85.10;98855.34;4998775;28;20566;-73
2022/03/28 01:25:53;;;;;;;18.60;16.70;;;7.50;92.20;;;6.14;85.89;98856.19;4998783;28;20642;-72
2022/03/28 01:28:21;;;;;;;15.87;14.17;;;7.40;92.60;;;6.14;85.19;98850.81;5000209;28;20464;-73
2022/03/28 01:30:49;;;;;;;17.40;15.60;;;7.40;92.40;;;6.13;85.80;98849.16;4995481;28;20471;-72
2022/03/28 01:33:17;;;;;;;18.57;16.60;;;7.40;92.80;;;6.04;85.85;98845.63;4995915;28;20477;-73
2022/03/28 01:35:45;;;;;;;19.63;16.57;;;7.30;93.00;;;5.99;86.18;98845.22;4997706;28;20463;-72
2022/03/28 01:38:16;;;;;;;17.37;15.57;;;7.30;93.00;;;5.95;86.71;98847.41;5010151;28;20467;-72
2022/03/28 01:40:47;;;;;;;17.80;15.70;;;7.20;93.30;;;5.74;86.38;98813.00;5000983;28;20482;-71
2022/03/28 01:43:15;;;;;;;17.57;15.87;;;7.30;93.60;;;5.95;86.87;98842.88;5010035;28;20554;-71
2022/03/28 01:45:43;;;;;;;17.97;15.97;;;7.20;93.40;;;6.01;86.25;98846.78;5008530;28;20452;-71
2022/03/28 01:48:10;;;;;;;18.50;15.30;;;7.20;93.40;;;5.89;87.18;98843.56;4996557;28;20466;-71
2022/03/28 01:50:39;;;;;;;21.13;17.63;;;7.20;93.60;;;5.89;87.26;98834.66;4997615;28;20476;-71
2022/03/28 01:53:06;;;;;;;17.93;16.03;;;7.20;93.90;;;5.86;86.87;98837.66;4999733;28;20573;-71
2022/03/28 01:55:35;;;;;;;18.53;16.40;;;7.20;93.70;;;5.86;87.01;98843.88;5002630;28;20550;-70
2022/03/28 01:58:02;;;;;;;19.27;17.20;;;7.10;93.90;;;5.83;87.55;98841.50;5000984;28;20474;-71
2022/03/28 02:00:32;;;;;;;19.13;17.10;;;7.10;94.00;;;5.69;87.62;98818.88;5003295;28;20540;-71
2022/03/28 02:02:59;;;;;;;18.93;16.37;;;7.10;94.30;;;5.71;87.80;98837.47;5000911;28;20460;-73
2022/03/28 02:05:26;;;;;;;17.60;15.63;;;7.00;94.10;;;5.73;87.61;98833.63;4997179;28;20499;-72
2022/03/28 02:07:53;;;;;;;18.07;16.20;;;7.00;94.20;;;5.62;87.53;98837.44;5002890;28;20466;-70
2022/03/28 02:10:22;;;;;;;20.27;15.80;;;7.00;94.30;;;5.56;88.55;98840.78;4999693;28;20456;-73
2022/03/28 02:12:52;;;;;;;21.60;17.13;;;6.90;94.80;;;5.48;88.63;98832.72;4997198;28;21078;-71
2022/03/28 02:15:19;;;;;;;18.80;16.93;;;6.70;96.30;;;5.55;88.52;98836.44;4999629;28;20452;-71
2022/03/28 02:17:46;;;;;;;19.63;17.60;;;6.80;95.70;;;5.52;87.99;98826.00;4999679;28;20977;-71
2022/03/28 02:20:15;;;;;;;18.87;16.87;;;6.80;95.10;;;5.47;87.73;98823.00;5001132;28;20936;-72
2022/03/28 02:22:44;;;;;;;18.63;16.73;;;6.80;95.00;;;5.55;87.79;98830.22;4999830;28;20462;-71
2022/03/28 02:25:13;;;;;;;19.13;16.60;;;6.80;95.10;;;5.46;88.39;98840.94;5001274;28;20978;-72
2022/03/28 02:27:41;;;;;;;19.50;17.57;;;6.70;95.10;;;5.35;88.70;98820.59;5019047;28;20587;-72
2022/03/28 02:30:12;;;;;;;17.60;15.67;;;6.70;95.40;;;5.36;88.50;98830.31;4995321;28;20554;-70
2022/03/28 02:32:39;;;;;;;18.60;16.60;;;6.70;95.40;;;4.89;89.12;98785.25;4997619;28;20464;-71
2022/03/28 02:35:08;;;;;;;18.70;16.10;;;6.50;95.60;;;5.03;89.94;98827.50;4996347;28;20887;-71
2022/03/28 02:37:35;;;;;;;17.67;15.87;;;6.30;97.60;;;5.00;91.09;98827.84;4995529;28;21006;-70
2022/03/28 02:40:03;;;;;;;17.60;15.80;;;6.20;99.10;;;5.19;89.90;98831.25;4996489;28;20474;-70
2022/03/28 02:42:31;;;;;;;18.90;17.00;;;6.40;99.10;;;5.30;89.75;98822.09;4999240;28;20541;-70
2022/03/28 02:44:58;;;;;;;19.17;17.00;;;6.50;97.80;;;5.18;89.49;98817.03;4997638;28;20487;-69
2022/03/28 02:47:26;;;;;;;19.90;16.77;;;6.50;96.90;;;5.23;89.58;98819.22;5000821;28;20525;-69
2022/03/28 02:49:53;;;;;;;18.60;16.70;;;6.40;97.20;;;5.25;89.19;98811.88;4994843;28;20461;-71
2022/03/28 02:52:21;;;;;;;18.57;16.67;;;6.50;96.80;;;5.25;89.75;98815.38;5002695;28;20507;-71
2022/03/28 02:54:48;;;;;;;17.60;15.80;;;6.50;97.10;;;5.15;89.32;98805.81;4999901;28;20476;-70
2022/03/28 02:57:15;;;;;;;19.37;17.27;;;6.40;97.10;;;5.05;90.32;98804.06;4998312;28;20499;-71
2022/03/28 02:59:42;;;;;;;19.70;17.60;;;6.40;97.00;;;4.56;89.79;98731.53;5000333;28;20474;-71
2022/03/28 03:02:09;;;;;;;19.30;17.30;;;6.30;97.80;;;5.02;90.64;98803.56;4995145;28;20466;-71
2022/03/28 03:04:38;;;;;;;17.70;15.90;;;6.30;98.10;;;4.88;90.05;98799.66;4997393;28;20455;-70
2022/03/28 03:07:06;;;;;;;19.60;16.93;;;6.20;97.40;;;4.79;90.83;98806.78;5002163;28;20612;-70
2022/03/28 03:09:33;;;;;;;20.87;16.33;;;6.10;99.10;;;4.94;91.05;98796.34;5011886;28;20495;-70
2022/03/28 03:12:00;;;;;;;19.27;17.27;;;6.20;99.50;;;4.87;90.72;98797.97;4996340;28;20554;-71
2022/03/28 03:14:27;;;;;;;20.60;17.97;;;6.10;99.00;;;4.80;91.53;98789.72;4999019;28;20467;-70
2022/03/28 03:16:54;;;;;;;21.20;17.20;;;6.10;99.50;;;4.64;91.60;98790.50;5000782;28;20551;-70
2022/03/28 03:19:21;;;;;;;18.53;16.57;;;6.00;99.70;;;4.35;92.06;98749.66;5001154;28;20865;-71
2022/03/28 03:21:50;;;;;;;20.73;16.83;;;5.90;99.90;;;4.82;91.58;98793.09;5004025;28;20497;-71
2022/03/28 03:24:17;;;;;;;17.83;15.90;;;6.00;99.90;;;4.76;90.91;98791.88;5006795;28;20506;-70
2022/03/28 03:26:44;;;;;;;21.80;17.60;;;6.10;99.10;;;4.66;91.46;98788.50;5019865;28;20459;-71
2022/03/28 03:29:11;;;;;;;19.63;17.53;;;5.90;99.90;;;4.73;91.20;98788.69;5001779;28;20463;-71
2022/03/28 03:31:39;;;;;;;21.90;17.20;;;6.00;99.90;;;4.68;91.39;98787.31;5002018;28;20521;-71
2022/03/28 03:34:06;;;;;;;19.63;17.67;;;5.90;99.90;;;4.67;91.55;98790.16;4996948;28;20459;-71
2022/03/28 03:36:34;;;;;;;21.37;18.80;;;5.90;99.90;;;4.74;91.69;98785.84;5000518;28;20484;-71
2022/03/28 03:39:02;;;;;;;20.03;17.90;;;6.00;99.90;;;4.75;91.44;98786.69;4999348;28;20494;-71
2022/03/28 03:41:29;;;;;;;18.50;16.57;;;6.00;99.80;;;4.73;90.43;98783.34;4997794;28;20566;-70
2022/03/28 03:43:56;;;;;;;19.70;17.37;;;6.00;98.90;;;4.63;90.72;98781.59;5012002;28;20509;-69
2022/03/28 03:46:23;;;;;;;19.97;16.83;;;6.00;98.90;;;4.51;90.85;98770.34;4998389;28;20553;-70
2022/03/28 03:48:50;;;;;;;19.07;17.17;;;6.00;98.90;;;4.43;91.67;98778.31;4998518;28;21025;-70
2022/03/28 03:51:17;;;;;;;20.33;18.17;;;5.80;98.60;;;4.39;91.77;98782.28;5000799;28;20881;-69
2022/03/28 03:53:44;;;;;;;20.10;17.00;;;5.70;99.90;;;4.33;92.15;98780.25;4995748;28;20471;-69
2022/03/28 03:56:13;;;;;;;23.87;18.43;;;5.70;99.90;;;4.43;91.86;98778.31;5001390;28;20560;-69
2022/03/28 03:58:40;;;;;;;22.00;17.57;;;5.70;99.90;;;4.36;92.26;98769.25;4993192;28;20459;-69
2022/03/28 04:01:09;;;;;;;19.30;17.40;;;5.70;99.90;;;4.44;91.85;98768.44;4995501;28;20605;-69
2022/03/28 04:03:36;;;;;;;20.87;18.00;;;5.70;99.90;;;4.43;91.97;98770.28;5010673;28;20570;-69
2022/03/28 04:06:03;;;;;;;20.97;17.17;;;5.70;99.90;;;4.44;92.06;98765.78;5009358;28;20938;-70
2022/03/28 04:08:30;;;;;;;23.03;17.50;;;5.80;99.90;;;4.43;91.51;98772.13;4998006;28;20550;-70
2022/03/28 04:10:57;;;;;;;22.43;18.20;;;5.80;99.90;;;4.37;91.59;98758.34;5001871;28;20491;-73
2022/03/28 04:13:26;;;;;;;23.70;19.37;;;5.70;99.90;;;4.22;92.77;98752.75;5001107;28;20939;-69
2022/03/28 04:15:53;;;;;;;21.03;18.00;;;5.60;99.90;;;4.25;93.52;98754.28;5001081;28;20459;-69
2022/03/28 04:18:20;;;;;;;20.40;18.30;;;5.60;99.90;;;4.31;92.79;98752.78;5002541;28;20469;-71
2022/03/28 04:20:47;;;;;;;23.93;18.47;;;5.60;99.90;;;4.24;92.76;98752.59;5007032;28;20482;-69
2022/03/28 04:23:14;;;;;;;25.37;20.30;;;5.60;99.90;;;4.16;92.92;98745.34;4996735;28;21311;-70
2022/03/28 04:25:41;;;;;;;23.17;18.83;;;5.60;99.90;;;4.20;93.04;98760.09;5005171;28;20669;-70
2022/03/28 04:28:08;;;;;;;23.03;18.20;;;5.60;99.90;;;4.11;93.85;98747.66;5003218;28;20468;-70
2022/03/28 04:30:37;;;;;;;20.40;18.30;;;5.50;99.90;;;4.05;93.36;98750.97;5016394;28;20467;-71
2022/03/28 04:33:07;;;;;;;22.20;18.07;;;5.40;99.90;;;3.64;94.54;98688.16;4993232;28;20554;-70
2022/03/28 04:35:34;;;;;;;21.77;18.40;;;5.40;99.90;;;4.07;93.83;98747.13;5010340;28;21227;-70
2022/03/28 04:38:04;;;;;;;23.97;19.30;;;5.40;99.90;;;4.10;93.36;98745.97;4997058;28;20474;-70
2022/03/28 04:40:33;;;;;;;21.37;19.17;;;5.40;99.90;;;4.05;94.27;98733.06;4999501;28;20480;-72
2022/03/28 04:43:00;;;;;;;23.33;19.10;;;5.40;99.90;;;4.19;92.90;98744.19;4992042;28;20452;-74
2022/03/28 04:45:30;;;;;;;22.33;19.17;;;5.50;99.90;;;4.11;93.59;98743.16;4998585;28;20484;-74
2022/03/28 04:47:58;;;;;;;21.90;19.07;;;5.50;99.90;;;4.06;93.91;98744.63;5011246;28;20490;-74
2022/03/28 04:50:25;;;;;;;22.20;19.00;;;5.40;99.90;;;3.96;93.56;98736.69;5001036;28;20533;-73
2022/03/28 04:52:52;;;;;;;27.93;19.53;;;5.40;99.90;;;3.93;93.75;98735.16;5003255;28;20501;-74
2022/03/28 04:55:21;;;;;;;23.63;19.73;;;5.30;99.90;;;4.09;93.43;98752.31;5013502;28;20466;-85
2022/03/28 04:57:48;;;;;;;20.63;18.27;;;5.40;99.90;;;3.83;93.82;98735.25;5002186;28;20480;-75
2022/03/28 05:00:17;;;;;;;20.10;18.00;;;5.30;99.90;;;4.00;94.01;98753.25;5014777;28;20473;-74
2022/03/28 05:02:45;;;;;;;21.40;18.40;;;5.30;99.90;;;4.09;93.84;98749.66;4984394;28;20473;-74
2022/03/28 05:05:13;;;;;;;23.73;19.40;;;5.40;99.90;;;3.83;92.87;98707.66;5003134;28;20471;-72
2022/03/28 05:07:41;;;;;;;21.50;19.20;;;5.40;99.90;;;4.09;93.06;98742.47;5022590;28;20562;-76
2022/03/28 05:10:10;;;;;;;20.53;18.40;;;5.40;99.90;;;4.09;93.12;98749.66;4999528;28;20523;-73
2022/03/28 05:12:37;;;;;;;23.70;20.00;;;5.50;99.90;;;4.00;93.75;98746.06;5008398;28;21060;-73
2022/03/28 05:15:06;;;;;;;21.23;19.00;;;5.40;99.90;;;4.14;92.81;98752.69;5012386;28;20468;-72
2022/03/28 05:17:33;;;;;;;22.10;18.77;;;5.50;99.90;;;4.14;92.87;98747.34;5013532;28;20470;-72
2022/03/28 05:20:01;;;;;;;24.10;19.20;;;5.50;99.90;;;4.22;92.32;98758.09;5002359;28;20533;-72
2022/03/28 05:22:30;;;;;;;21.43;19.33;;;5.60;99.90;;;4.06;92.07;98731.25;5013442;28;20494;-74
2022/03/28 05:24:58;;;;;;;23.30;20.47;;;5.50;99.90;;;3.91;91.89;98707.75;4999296;28;20553;-72
2022/03/28 05:27:25;;;;;;;20.97;18.77;;;5.60;99.90;;;4.15;92.26;98745.50;5004678;28;20486;-71
2022/03/28 05:29:52;;;;;;;22.83;18.53;;;5.60;99.70;;;4.24;91.75;98749.91;4998379;28;20901;-72
2022/03/28 05:32:19;;;;;;;20.57;17.37;;;5.60;99.40;;;4.25;91.08;98754.28;4998164;28;20971;-71
2022/03/28 05:34:46;;;;;;;22.03;19.00;;;5.60;98.00;;;4.11;91.27;98745.84;4996249;28;20469;-73
2022/03/28 05:37:15;;;;;;;20.03;16.83;;;5.50;97.30;;;4.13;90.63;98742.16;4998027;28;21391;-72
2022/03/28 05:39:46;;;;;;;20.87;18.67;;;5.50;97.40;;;4.23;90.24;98743.72;5003311;28;20589;-73
2022/03/28 05:42:14;;;;;;;23.70;19.13;;;5.60;96.50;;;3.93;89.63;98696.88;5001857;28;20490;-73
2022/03/28 05:44:41;;;;;;;22.07;17.60;;;5.60;95.60;;;4.24;89.52;98758.78;5000719;28;20469;-71
2022/03/28 05:47:10;;;;;;;24.43;17.37;;;5.60;95.40;;;4.24;89.28;98745.41;4999536;28;20549;-72
2022/03/28 05:49:38;;;;;;;19.93;17.10;;;5.70;95.00;;;4.38;89.17;98754.69;5015155;28;21092;-72
2022/03/28 05:52:06;;;;;;;19.17;17.17;;;5.70;94.50;;;4.42;88.81;98752.53;4995434;28;20462;-72
2022/03/28 05:54:33;;;;;;;19.70;17.57;;;5.80;94.50;;;4.48;89.08;98754.59;5000357;28;20462;-73
2022/03/28 05:57:02;;;;;;;19.27;17.27;;;5.80;94.40;;;4.62;88.09;98750.50;5005869;28;20463;-71
2022/03/28 05:59:29;;;;;;;19.30;17.13;;;5.90;93.90;;;4.61;88.08;98758.66;5003736;28;20832;-73
2022/03/28 06:01:56;;;;;;;20.83;18.40;;;6.00;93.10;;;4.56;87.97;98763.66;4997769;28;20486;-74
2022/03/28 06:04:23;;;;;;;18.33;16.40;;;6.00;93.10;;;4.68;87.34;98738.31;5008294;28;21278;-74
2022/03/28 06:06:51;;;;;;;21.63;16.60;;;6.00;93.20;;;4.70;86.63;98749.69;5024954;28;20521;-73
2022/03/28 06:09:18;;;;;;;18.57;16.37;;;6.10;92.30;;;4.85;86.47;98755.25;5005823;28;20977;-73
2022/03/28 06:11:45;;;;;;;19.57;16.30;;;6.20;92.50;;;4.87;87.00;98753.28;5002130;28;20459;-73
2022/03/28 06:14:13;;;;;;;23.60;17.17;;;6.20;92.20;;;4.95;86.21;98756.00;5000471;28;20463;-73
2022/03/28 06:16:40;;;;;;;25.93;18.30;;;6.30;91.60;;;5.02;86.58;98750.84;4991663;28;20465;-73
2022/03/28 06:19:07;;;;;;;26.40;19.17;;;6.30;92.20;;;4.99;85.53;98747.63;5009412;28;20469;-75
2022/03/28 06:21:34;;;;;;;23.70;19.20;;;6.40;91.70;;;5.12;85.74;98749.88;5003491;28;20985;-73
2022/03/28 06:24:02;;;;;;;23.77;18.50;;;6.40;91.80;;;5.42;84.80;98740.38;5014776;28;20556;-74
2022/03/28 06:26:29;;;;;;;20.47;18.00;;;6.60;91.30;;;5.47;84.24;98737.22;4998297;28;20460;-74
2022/03/28 06:28:57;;;;;;;22.67;18.50;;;6.70;91.10;;;5.61;83.95;98743.75;5002076;28;21372;-74
2022/03/28 06:31:25;;;;;;;21.80;19.50;;;6.80;90.80;;;5.59;84.49;98740.41;5002730;28;20567;-75
2022/03/28 06:33:52;;;;;;;21.93;19.63;;;6.90;90.60;;;5.64;83.27;98746.13;5011245;28;20203;-75
2022/03/28 06:36:19;;;;;;;21.73;18.20;;;7.00;90.00;;;5.68;83.11;98736.75;5007721;28;20529;-72
2022/03/28 06:38:46;;;;;;;21.50;18.93;;;7.00;89.60;;;5.95;82.84;98734.75;5002417;28;20555;-77
2022/03/28 06:41:14;;;;;;;23.70;19.40;;;7.10;89.40;;;5.93;82.32;98740.28;4999841;28;20879;-76
2022/03/28 06:43:41;;;;;;;24.33;20.23;;;7.30;88.20;;;5.87;82.88;98732.91;4999056;28;21227;-76
2022/03/28 06:46:08;;;;;;;26.23;19.50;;;7.30;89.00;;;6.06;82.68;98729.06;5001097;28;20467;-75
2022/03/28 06:48:36;;;;;;;26.63;18.63;;;7.30;88.60;;;6.06;81.52;98725.56;4999654;28;20774;-76
2022/03/28 06:51:06;;;;;;;21.23;18.37;;;7.40;87.50;;;6.18;81.65;98718.84;4996156;28;20467;-75
2022/03/28 06:53:33;;;;;;;23.53;17.93;;;7.40;87.40;;;6.43;80.71;98731.38;4999256;28;20486;-76
2022/03/28 06:56:01;;;;;;;22.37;18.63;;;7.60;86.60;;;6.51;80.25;98732.19;5002567;28;20463;-76
2022/03/28 06:58:28;;;;;;;23.13;19.47;;;7.80;85.50;;;6.72;79.70;98725.41;5000887;28;20992;-75
2022/03/28 07:00:55;;;;;;;24.80;19.27;;;7.90;84.90;;;6.78;78.51;98711.31;5023064;28;20452;-74
2022/03/28 07:03:22;;;;;;;25.60;18.77;;;8.00;83.70;;;6.80;79.11;98724.53;5000192;28;20486;-75
2022/03/28 07:05:50;;;;;;;22.50;20.10;;;8.10;83.50;;;6.80;78.68;98716.47;5002092;28;20564;-77
2022/03/28 07:08:17;;;;;;;26.97;18.77;;;8.10;83.40;;;6.99;78.25;98712.53;4998057;28;20466;-77
2022/03/28 07:10:45;;;;;;;27.00;19.23;;;8.20;82.90;;;7.19;76.99;98720.16;5000875;28;20950;-75
2022/03/28 07:13:12;;;;;;;22.57;18.00;;;8.40;82.40;;;7.33;76.47;98713.22;5017350;28;21004;-76
2022/03/28 07:15:39;;;;;;;23.93;19.90;;;8.50;81.80;;;7.41;76.07;98709.63;4998639;28;20491;-79
2022/03/28 07:18:08;;;;;;;20.93;18.73;;;8.60;81.40;;;7.67;75.72;98713.84;5001373;28;20463;-82
2022/03/28 07:20:36;;;;;;;26.83;18.80;;;8.80;80.90;;;7.64;75.52;98713.16;4992494;28;20459;-82
2022/03/28 07:23:06;;;;;;;21.90;17.73;;;8.90;80.50;;;7.63;75.74;98711.47;4998207;28;20584;-82
2022/03/28 07:25:33;;;;;;;23.10;18.53;;;8.90;80.60;;;8.05;74.08;98703.94;4995692;28;20470;-80
2022/03/28 07:28:07;;;;;;;21.80;18.73;;;9.10;80.10;;;8.13;73.85;98700.31;5001749;28;20563;-82
2022/03/28 07:30:34;;;;;;;24.20;18.97;;;9.30;79.80;;;8.11;74.24;98707.72;4999638;28;20839;-81
2022/03/28 07:33:02;;;;;;;22.20;18.43;;;9.30;79.30;;;8.26;73.51;98699.69;4998604;28;20566;-78
2022/03/28 07:35:31;;;;;;;21.80;19.13;;;9.50;79.30;;;8.52;73.47;98689.53;4999400;28;20934;-85
2022/03/28 07:37:59;;;;;;;27.90;19.50;;;9.60;79.20;;;8.52;73.64;98687.69;5001183;28;20494;-78
2022/03/28 07:40:27;;;;;;;23.53;19.70;;;9.70;79.20;;;8.60;73.19;98689.44;4997276;28;20607;-83
2022/03/28 07:42:54;;;;;;;26.17;19.17;;;9.80;79.30;;;8.71;73.05;98686.25;4999153;28;20478;-81
2022/03/28 07:45:23;;;;;;;18.70;16.80;;;9.90;78.80;;;8.98;72.16;98691.16;4999666;28;20863;-81
2022/03/28 07:47:50;;;;;;;37.50;19.60;;;10.10;77.80;;;9.11;71.71;98699.41;4997456;28;21280;-84
2022/03/28 07:50:17;;;;;;;24.60;19.87;;;10.20;77.50;;;9.35;70.78;98692.84;4999371;28;20464;-78
2022/03/28 07:52:45;;;;;;;25.60;20.30;;;10.40;77.30;;;9.53;70.18;98694.25;4999670;28;20460;-78
2022/03/28 07:55:13;;;;;;;23.07;20.33;;;10.60;76.90;;;9.50;70.52;98689.25;4996915;28;20536;-77
2022/03/28 07:57:43;;;;;;;25.90;20.53;;;10.60;76.50;;;9.55;70.50;98677.88;5002152;28;20558;-79
2022/03/28 08:00:14;;;;;;;27.93;20.03;;;10.70;76.60;;;9.74;70.16;98681.78;5001259;28;20478;-80
2022/03/28 08:02:42;;;;;;;21.80;19.50;;;10.90;76.40;;;9.99;69.41;98671.41;4995489;28;20574;-79
2022/03/28 08:05:10;;;;;;;21.70;19.40;;;11.10;75.80;;;10.07;68.70;98675.81;4996860;28;20473;-75
2022/03/28 08:07:38;;;;;;;21.17;18.97;;;11.20;75.80;;;10.19;68.21;98674.25;4994452;28;20559;-73
2022/03/28 08:10:06;;;;;;;22.17;19.17;;;11.30;75.50;;;10.40;68.42;98669.00;4999952;28;20468;-81
2022/03/28 08:12:36;;;;;;;26.37;19.63;;;11.50;75.40;;;10.43;66.81;98639.75;4989819;28;22301;-73
2022/03/28 08:15:07;;;;;;;20.43;18.43;;;11.70;74.80;;;10.62;66.89;98672.47;5000242;28;21260;-75
2022/03/28 08:17:36;;;;;;;22.60;19.80;;;11.70;74.00;;;10.67;66.97;98672.69;4998913;28;20593;-73
2022/03/28 08:20:03;;;;;;;21.93;19.07;;;11.70;74.00;;;10.71;66.90;98670.44;4994870;28;20471;-79
2022/03/28 08:22:31;;;;;;;21.73;18.20;;;11.80;73.90;;;10.82;66.50;98653.66;5003765;28;20474;-81
2022/03/28 08:24:58;;;;;;;20.93;18.73;;;12.00;73.70;;;10.96;66.19;98659.94;4998365;28;21089;-83
2022/03/28 08:27:25;;;;;;;19.43;17.33;;;12.10;73.40;;;11.14;66.21;98656.69;5000665;28;20553;-76
2022/03/28 08:29:52;;;;;;;20.80;18.60;;;12.20;73.30;;;11.53;64.19;98659.69;4993824;28;20461;-78
2022/03/28 08:32:21;;;;;;;20.73;16.93;;;12.50;72.60;;;11.55;64.04;98654.91;4996909;28;20560;-84
2022/03/28 08:34:48;;;;;;;21.83;18.83;;;12.60;71.80;;;11.61;63.70;98650.53;5012664;28;20460;-81
2022/03/28 08:37:16;;;;;;;22.07;18.13;;;12.70;71.40;;;11.92;62.76;98650.97;5003867;28;20488;-81
2022/03/28 08:39:44;;;;;;;18.47;16.50;;;12.80;71.00;;;11.92;61.30;98650.97;4998913;28;20450;-80
2022/03/28 08:42:12;;;;;;;17.73;15.93;;;13.00;69.60;;;12.03;60.73;98642.22;5001907;28;20485;-80
2022/03/28 08:44:39;;;;;;;21.30;17.07;;;13.00;68.70;;;12.11;60.49;98650.16;4996353;28;20963;-80
2022/03/28 08:47:09;;;;;;;19.60;17.03;;;13.20;68.20;;;11.90;60.67;98638.47;5002794;28;20448;-78
2022/03/28 08:49:37;;;;;;;20.57;18.37;;;13.10;67.80;;;12.01;60.73;98639.75;5019039;28;20519;-78
2022/03/28 08:52:06;;;;;;;20.13;17.97;;;13.00;67.90;;;12.19;59.67;98625.53;5005645;28;21061;-78
2022/03/28 08:54:34;;;;;;;20.90;16.73;;;13.30;67.50;;;12.46;58.69;98636.31;5001722;28;20557;-80
2022/03/28 08:57:01;;;;;;;20.30;16.80;;;13.40;66.40;;;12.69;57.15;98631.47;5003505;28;20460;-79
2022/03/28 08:59:28;;;;;;;24.47;17.70;;;13.60;65.40;;;12.58;57.51;98627.53;5001885;28;20493;-81
2022/03/28 09:01:55;;;;;;;23.57;17.73;;;13.60;64.90;;;12.77;56.90;98625.81;5002968;28;21096;-79
2022/03/28 09:04:22;;;;;;;21.33;18.47;;;13.80;64.40;;;12.86;57.21;98623.69;4999326;28;21226;-80
2022/03/28 09:06:51;;;;;;;21.23;17.20;;;13.90;64.60;;;12.88;56.75;98627.00;5001160;28;21332;-79
2022/03/28 09:09:21;;;;;;;19.33;16.87;;;13.90;64.10;;;13.02;56.54;98623.19;4996023;28;20587;-79
2022/03/28 09:11:51;;;;;;;21.73;16.40;;;14.10;64.10;;;13.28;55.12;98621.38;5006638;28;20462;-80
2022/03/28 09:14:28;;;;;;;20.27;16.30;;;14.20;62.60;;;13.42;52.80;98615.84;4995604;28;20470;-79
2022/03/28 09:17:05;;;;;;;20.07;16.17;;;14.40;60.50;;;13.65;51.60;98606.31;5016041;28;20520;-80
2022/03/28 09:19:45;;;;;;;19.77;17.10;;;14.60;59.30;;;13.67;52.27;98606.94;5024793;28;20515;-79
2022/03/28 09:22:16;;;;;;;24.37;17.30;;;14.70;59.40;;;13.88;51.96;98598.41;5021100;28;20465;-79
2022/03/28 09:24:45;;;;;;;19.10;16.30;;;14.80;59.30;;;13.98;51.48;98599.75;5021797;28;20463;-80
2022/03/28 09:27:16;;;;;;;17.63;15.30;;;14.90;58.70;;;13.87;50.75;98576.88;5038377;28;20515;-80
2022/03/28 09:30:06;;;;;;;18.73;15.53;;;15.00;57.90;;;14.18;50.63;98586.00;5010662;28;21018;-80
2022/03/28 09:32:36;;;;;;;20.70;15.90;;;15.10;57.80;;;14.30;49.75;98583.34;5007995;28;20485;-79
2022/03/28 09:35:13;;;;;;;18.03;15.53;;;15.30;57.20;;;14.20;49.61;98578.44;5014864;28;20963;-78
2022/03/28 09:37:58;;;;;;;21.53;15.97;;;15.20;56.50;;;14.24;49.44;98571.50;5003352;28;20969;-75
2022/03/28 09:40:36;;;;;;;17.93;16.03;;;15.30;56.30;;;14.40;48.52;98553.75;5002501;28;20466;-76
2022/03/28 09:43:06;;;;;;;18.40;16.07;;;15.40;55.90;;;14.91;46.89;98572.59;5000614;28;20481;-76
2022/03/28 09:45:38;;;;;;;20.57;15.60;;;15.70;54.80;;;14.87;46.71;98571.41;4998358;28;20459;-76
2022/03/28 09:48:09;;;;;;;16.63;14.07;;;15.90;54.30;;;14.88;46.63;98567.63;5000104;28;20585;-79
2022/03/28 09:50:39;;;;;;;19.93;15.13;;;15.90;53.70;;;14.90;46.17;98561.97;4998995;28;20516;-78
2022/03/28 09:53:18;;;;;;;19.47;15.50;;;15.90;53.20;;;14.63;45.88;98522.28;4999081;28;20462;-80
2022/03/28 09:55:54;;;;;;;19.57;15.00;;;15.90;53.10;;;15.02;46.06;98541.06;4999086;28;20691;-80
2022/03/28 09:58:45;;;;;;;18.03;15.03;;;16.00;53.10;;;15.30;45.41;98545.88;5001749;28;20796;-79
2022/03/28 10:01:21;;;;;;;23.93;15.30;;;16.20;52.90;;;15.13;45.55;98523.94;5001438;28;20505;-80
2022/03/28 10:03:50;;;;;;;19.93;15.03;;;16.20;52.70;;;15.48;44.90;98538.69;5001237;28;20623;-81
2022/03/28 10:06:19;;;;;;;18.75;14.75;;;16.40;52.10;;;15.71;42.97;98531.59;4999481;28;20542;-79
2022/03/28 10:08:48;;;;;;;16.77;14.20;;;16.60;51.30;;;15.60;43.53;98529.69;4998117;28;20215;-75
2022/03/28 10:11:16;;;;;;;17.83;14.87;;;16.60;51.10;;;15.61;42.78;98524.00;5006030;28;20948;-73
2022/03/28 10:13:44;;;;;;;17.53;15.63;;;16.60;50.30;;;15.71;42.62;98526.97;5004527;28;20470;-73
2022/03/28 10:16:11;;;;;;;23.93;12.70;;;16.70;50.40;;;15.94;39.97;98513.59;4997993;28;20568;-76
2022/03/28 10:18:40;;;;;;;16.20;11.40;;;16.80;48.20;;;16.07;37.21;98504.34;5002305;28;20605;-76
2022/03/28 10:21:15;;;;;;;15.60;11.73;;;16.90;46.40;;;16.17;39.07;98501.03;4993426;28;21469;-76